createdAt,value
2023-03-05T00:00:54.093Z,0.20
2023-03-05T00:03:40.847Z,0.30
2023-03-05T00:06:27.384Z,0.30
2023-03-05T00:09:13.944Z,0.20
2023-03-05T00:12:00.461Z,0.30
2023-03-05T00:14:47.009Z,0.20
2023-03-05T00:17:33.553Z,0.10
2023-03-05T00:20:20.122Z,0.00
2023-03-05T00:23:06.727Z,0.00
2023-03-05T00:25:53.331Z,-0.10
2023-03-05T00:28:39.900Z,-0.10
2023-03-05T00:31:26.503Z,0.00
2023-03-05T00:34:13.110Z,-0.10
2023-03-05T00:36:59.664Z,-0.10
2023-03-05T00:39:46.154Z,-0.10
2023-03-05T00:42:32.692Z,-0.20
2023-03-05T00:45:19.227Z,-0.20
2023-03-05T00:48:05.763Z,-0.20
2023-03-05T00:50:52.352Z,-0.20
2023-03-05T00:53:38.872Z,-0.20
2023-03-05T00:56:25.426Z,-0.20
2023-03-05T00:59:11.954Z,-0.20
2023-03-05T01:01:58.533Z,-0.20
2023-03-05T01:04:45.115Z,-0.20
2023-03-05T01:07:31.649Z,-0.20
2023-03-05T01:10:18.184Z,-0.20
2023-03-05T01:13:04.745Z,-0.10
2023-03-05T01:15:51.337Z,-0.10
2023-03-05T01:18:38.066Z,-0.10
2023-03-05T01:21:24.593Z,-0.10
2023-03-05T01:24:12.151Z,-0.10
2023-03-05T01:26:58.673Z,0.00
2023-03-05T01:29:45.216Z,-0.10
2023-03-05T01:32:32.337Z,0.00
2023-03-05T01:35:19.738Z,-0.10
2023-03-05T01:38:06.312Z,-0.10
2023-03-05T01:40:52.835Z,-0.10
2023-03-05T01:43:39.400Z,-0.10
2023-03-05T01:46:25.923Z,-0.10
2023-03-05T01:49:12.497Z,-0.10
2023-03-05T01:51:59.019Z,0.00
2023-03-05T01:54:45.540Z,0.00
2023-03-05T01:57:32.079Z,0.00
2023-03-05T02:00:18.644Z,0.00
2023-03-05T02:03:05.162Z,0.00
2023-03-05T02:05:51.722Z,0.00
2023-03-05T02:08:38.245Z,0.00
2023-03-05T02:11:24.795Z,0.00
2023-03-05T02:14:11.331Z,-0.10
2023-03-05T02:16:57.860Z,0.00
2023-03-05T02:19:44.558Z,0.00
2023-03-05T02:22:31.084Z,0.00
2023-03-05T02:25:17.665Z,0.00
2023-03-05T02:28:04.191Z,0.00
2023-03-05T02:30:50.758Z,0.00
2023-03-05T02:33:37.284Z,0.10
2023-03-05T02:36:23.834Z,0.20
2023-03-05T02:39:10.315Z,0.10
2023-03-05T02:41:56.876Z,0.10
2023-03-05T02:44:43.398Z,0.00
2023-03-05T02:47:29.899Z,0.00
2023-03-05T02:50:16.464Z,0.10
2023-03-05T02:53:02.983Z,0.10
2023-03-05T02:55:49.554Z,0.10
2023-03-05T02:58:36.090Z,0.10
2023-03-05T03:01:22.714Z,0.10
2023-03-05T03:04:09.258Z,0.10
2023-03-05T03:06:55.808Z,0.10
2023-03-05T03:09:42.343Z,0.10
2023-03-05T03:12:28.917Z,0.10
2023-03-05T03:15:15.456Z,0.10
2023-03-05T03:18:01.990Z,0.10
2023-03-05T03:20:48.536Z,0.00
2023-03-05T03:23:35.070Z,0.00
2023-03-05T03:26:21.607Z,0.20
2023-03-05T03:29:08.164Z,0.10
2023-03-05T03:31:54.673Z,0.10
2023-03-05T03:34:41.163Z,0.10
2023-03-05T03:37:27.715Z,0.10
2023-03-05T03:40:14.214Z,0.00
2023-03-05T03:43:00.780Z,0.00
2023-03-05T03:45:47.346Z,0.00
2023-03-05T03:48:33.923Z,0.00
2023-03-05T03:51:20.443Z,0.00
2023-03-05T03:54:07.035Z,0.00
2023-03-05T03:56:53.556Z,0.00
2023-03-05T03:59:40.096Z,0.00
2023-03-05T04:02:26.699Z,0.00
2023-03-05T04:05:14.262Z,0.00
2023-03-05T04:08:02.285Z,0.00
2023-03-05T04:10:48.786Z,0.00
2023-03-05T04:13:35.314Z,0.10
2023-03-05T04:16:21.893Z,0.00
2023-03-05T04:19:08.495Z,0.10
2023-03-05T04:21:55.209Z,0.10
2023-03-05T04:24:41.736Z,0.10
2023-03-05T04:27:28.297Z,0.10
2023-03-05T04:30:14.813Z,0.10
2023-03-05T04:33:01.365Z,0.10
2023-03-05T04:35:48.017Z,0.10
2023-03-05T04:38:34.610Z,0.10
2023-03-05T04:41:21.159Z,0.00
2023-03-05T04:44:07.739Z,0.00
2023-03-05T04:46:54.273Z,0.00
2023-03-05T04:49:40.798Z,0.00
2023-03-05T04:52:27.320Z,0.00
2023-03-05T04:55:13.874Z,0.00
2023-03-05T04:58:00.347Z,0.00
2023-03-05T05:00:46.999Z,0.00
2023-03-05T05:03:33.532Z,0.00
2023-03-05T05:06:20.070Z,0.00
2023-03-05T05:09:06.597Z,0.00
2023-03-05T05:11:53.155Z,0.00
2023-03-05T05:14:39.672Z,-0.10
2023-03-05T05:17:26.214Z,0.00
2023-03-05T05:20:12.749Z,-0.10
2023-03-05T05:22:59.309Z,-0.10
2023-03-05T05:25:45.867Z,-0.10
2023-03-05T05:28:32.369Z,-0.10
2023-03-05T05:31:19.090Z,0.00
2023-03-05T05:34:05.613Z,-0.10
2023-03-05T05:36:52.128Z,-0.20
2023-03-05T05:39:38.652Z,-0.10
2023-03-05T05:42:25.174Z,-0.10
2023-03-05T05:45:13.036Z,-0.10
2023-03-05T05:47:59.577Z,-0.10
2023-03-05T05:50:47.613Z,-0.10
2023-03-05T05:53:34.134Z,-0.10
2023-03-05T05:56:20.768Z,0.00
2023-03-05T05:59:07.324Z,0.00
2023-03-05T06:01:53.880Z,0.00
2023-03-05T06:04:40.577Z,0.00
2023-03-05T06:07:27.113Z,0.00
2023-03-05T06:10:13.652Z,0.00
2023-03-05T06:13:00.190Z,0.00
2023-03-05T06:15:46.750Z,0.00
2023-03-05T06:18:33.264Z,-0.10
2023-03-05T06:21:19.865Z,0.00
2023-03-05T06:24:06.407Z,0.00
2023-03-05T06:26:52.974Z,0.00
2023-03-05T06:29:39.487Z,-0.10
2023-03-05T06:32:26.117Z,-0.10
2023-03-05T06:35:12.663Z,0.00
2023-03-05T06:37:59.211Z,-0.10
2023-03-05T06:40:45.717Z,0.00
2023-03-05T06:43:32.232Z,0.00
2023-03-05T06:46:18.841Z,0.00
2023-03-05T06:49:06.482Z,0.00
2023-03-05T06:51:53.017Z,0.00
2023-03-05T06:54:39.535Z,0.10
2023-03-05T06:57:26.079Z,0.10
2023-03-05T07:00:12.588Z,0.10
2023-03-05T07:02:59.143Z,0.10
2023-03-05T07:05:45.775Z,0.10
2023-03-05T07:08:32.326Z,0.10
2023-03-05T07:11:18.827Z,0.10
2023-03-05T07:14:05.375Z,0.20
2023-03-05T07:16:51.861Z,0.10
2023-03-05T07:19:38.375Z,0.10
2023-03-05T07:22:25.910Z,0.10
2023-03-05T07:25:12.418Z,0.20
2023-03-05T07:27:58.964Z,0.20
2023-03-05T07:30:45.526Z,0.20
2023-03-05T07:33:32.096Z,0.20
2023-03-05T07:36:18.645Z,0.20
2023-03-05T07:39:05.202Z,0.30
2023-03-05T07:41:51.769Z,0.30
2023-03-05T07:44:38.371Z,0.40
2023-03-05T07:47:24.915Z,0.30
2023-03-05T07:50:11.490Z,0.40
2023-03-05T07:52:58.038Z,0.30
2023-03-05T07:55:44.577Z,0.30
2023-03-05T07:58:31.099Z,0.30
2023-03-05T08:01:17.672Z,0.30
2023-03-05T08:04:04.249Z,0.30
2023-03-05T08:06:50.867Z,0.30
2023-03-05T08:09:37.403Z,0.30
2023-03-05T08:12:23.957Z,0.40
2023-03-05T08:15:10.459Z,0.50
2023-03-05T08:17:56.987Z,0.50
2023-03-05T08:20:43.523Z,0.60
2023-03-05T08:23:30.047Z,0.60
2023-03-05T08:26:16.789Z,0.60
2023-03-05T08:29:03.468Z,0.80
2023-03-05T08:31:50.004Z,0.90
2023-03-05T08:34:36.561Z,1.00
2023-03-05T08:37:23.153Z,1.10
2023-03-05T08:40:09.650Z,1.20
2023-03-05T08:42:56.207Z,1.30
2023-03-05T08:45:42.712Z,1.40
2023-03-05T08:48:29.243Z,1.40
2023-03-05T08:51:15.753Z,1.30
2023-03-05T08:54:02.295Z,1.30
2023-03-05T08:56:48.822Z,1.30
2023-03-05T08:59:35.344Z,1.50
2023-03-05T09:02:21.830Z,1.60
2023-03-05T09:05:08.373Z,1.70
2023-03-05T09:07:54.900Z,1.80
2023-03-05T09:10:41.426Z,1.90
2023-03-05T09:13:27.973Z,2.00
2023-03-05T09:16:14.501Z,2.10
2023-03-05T09:19:01.073Z,2.30
2023-03-05T09:21:47.641Z,2.30
2023-03-05T09:24:34.194Z,2.30
2023-03-05T09:27:20.735Z,2.30
2023-03-05T09:30:07.269Z,2.30
2023-03-05T09:32:53.795Z,2.40
2023-03-05T09:35:40.388Z,2.50
2023-03-05T09:38:26.909Z,2.50
2023-03-05T09:41:13.431Z,2.50
2023-03-05T09:43:59.954Z,2.50
2023-03-05T09:46:46.476Z,2.50
2023-03-05T09:49:33.148Z,2.50
2023-03-05T09:52:19.705Z,2.40
2023-03-05T09:55:06.333Z,2.50
2023-03-05T09:57:54.381Z,2.60
2023-03-05T10:00:40.930Z,2.70
2023-03-05T10:03:27.511Z,2.90
2023-03-05T10:06:14.106Z,2.90
2023-03-05T10:09:00.626Z,2.90
2023-03-05T10:11:47.131Z,2.90
2023-03-05T10:14:34.698Z,3.00
2023-03-05T10:17:21.230Z,3.10
2023-03-05T10:20:07.818Z,3.10
2023-03-05T10:22:54.364Z,3.20
2023-03-05T10:25:40.856Z,3.20
2023-03-05T10:28:27.468Z,3.10
2023-03-05T10:31:13.959Z,3.00
2023-03-05T10:34:00.502Z,3.00
2023-03-05T10:36:47.063Z,3.00
2023-03-05T10:39:33.583Z,2.90
2023-03-05T10:42:26.107Z,2.90
2023-03-05T10:45:14.070Z,2.90
2023-03-05T10:48:01.435Z,3.00
2023-03-05T10:50:48.077Z,3.00
2023-03-05T10:53:34.627Z,3.00
2023-03-05T10:56:21.302Z,3.00
2023-03-05T10:59:07.820Z,3.10
2023-03-05T11:01:54.376Z,3.20
2023-03-05T11:04:40.856Z,3.20
2023-03-05T11:07:27.386Z,3.20
2023-03-05T11:10:13.876Z,3.30
2023-03-05T11:13:00.414Z,3.20
2023-03-05T11:15:46.986Z,3.20
2023-03-05T11:18:33.526Z,3.30
2023-03-05T11:21:20.058Z,3.30
2023-03-05T11:24:06.596Z,3.20
2023-03-05T11:26:53.264Z,3.20
2023-03-05T11:29:39.971Z,3.20
2023-03-05T11:32:26.602Z,3.20
2023-03-05T11:35:13.179Z,3.10
2023-03-05T11:37:59.664Z,3.20
2023-03-05T11:40:46.224Z,3.20
2023-03-05T11:43:33.442Z,3.20
2023-03-05T11:46:19.972Z,3.30
2023-03-05T11:49:06.581Z,3.40
2023-03-05T11:51:53.114Z,3.50
2023-03-05T11:54:39.723Z,3.60
2023-03-05T11:57:26.202Z,3.50
2023-03-05T12:00:12.870Z,3.50
2023-03-05T12:02:59.411Z,3.50
2023-03-05T12:05:45.974Z,3.70
2023-03-05T12:08:32.542Z,3.80
2023-03-05T12:11:19.026Z,3.70
2023-03-05T12:14:05.648Z,3.70
2023-03-05T12:16:52.249Z,3.60
2023-03-05T12:19:38.798Z,3.40
2023-03-05T12:22:25.329Z,3.30
2023-03-05T12:25:11.875Z,3.20
2023-03-05T12:27:58.378Z,3.20
2023-03-05T12:30:44.969Z,3.10
2023-03-05T12:33:31.455Z,3.10
2023-03-05T12:36:18.002Z,3.10
2023-03-05T12:39:04.528Z,3.00
2023-03-05T12:41:51.097Z,3.00
2023-03-05T12:44:37.687Z,3.00
2023-03-05T12:47:24.342Z,3.00
2023-03-05T12:50:10.874Z,3.00
2023-03-05T12:52:57.389Z,2.90
2023-03-05T12:55:43.870Z,2.90
2023-03-05T12:58:30.436Z,2.80
2023-03-05T13:01:16.990Z,2.80
2023-03-05T13:04:03.641Z,2.70
2023-03-05T13:06:50.230Z,2.70
2023-03-05T13:09:36.752Z,2.70
2023-03-05T13:12:23.341Z,2.80
2023-03-05T13:15:10.064Z,2.80
2023-03-05T13:17:56.544Z,2.80
2023-03-05T13:20:43.137Z,2.80
2023-03-05T13:23:29.687Z,2.80
2023-03-05T13:26:16.195Z,2.80
2023-03-05T13:29:02.705Z,2.80
2023-03-05T13:31:49.291Z,2.80
2023-03-05T13:34:46.721Z,2.80
2023-03-05T13:37:33.971Z,2.70
2023-03-05T13:40:20.461Z,2.70
2023-03-05T13:43:07.000Z,2.70
2023-03-05T13:45:53.550Z,2.80
2023-03-05T13:48:40.148Z,2.80
2023-03-05T13:51:26.696Z,2.80
2023-03-05T13:54:13.346Z,2.70
2023-03-05T13:56:59.840Z,2.70
2023-03-05T13:59:46.340Z,2.70
2023-03-05T14:02:33.833Z,2.70
2023-03-05T14:05:20.356Z,2.70
2023-03-05T14:08:06.839Z,2.70
2023-03-05T14:10:53.458Z,2.60
2023-03-05T14:13:40.025Z,2.60
2023-03-05T14:16:26.612Z,2.60
2023-03-05T14:19:13.142Z,2.50
2023-03-05T14:21:59.645Z,2.60
2023-03-05T14:24:46.184Z,2.40
2023-03-05T14:27:32.714Z,2.30
2023-03-05T14:30:19.244Z,2.20
2023-03-05T14:33:05.801Z,2.20
2023-03-05T14:35:52.410Z,2.20
2023-03-05T14:38:38.978Z,2.30
2023-03-05T14:41:25.457Z,2.40
2023-03-05T14:44:13.522Z,2.50
2023-03-05T14:47:00.020Z,2.60
2023-03-05T14:49:46.531Z,2.60
2023-03-05T14:52:34.557Z,2.60
2023-03-05T14:55:21.042Z,2.60
2023-03-05T14:58:07.564Z,2.60
2023-03-05T15:00:54.088Z,2.60
2023-03-05T15:03:40.591Z,2.60
2023-03-05T15:06:27.167Z,2.50
2023-03-05T15:09:13.706Z,2.40
2023-03-05T15:12:00.186Z,2.40
2023-03-05T15:14:47.718Z,2.30
2023-03-05T15:17:34.251Z,2.30
2023-03-05T15:20:20.795Z,2.20
2023-03-05T15:23:07.321Z,2.30
2023-03-05T15:25:53.873Z,2.20
2023-03-05T15:28:40.373Z,2.20
2023-03-05T15:31:26.893Z,2.20
2023-03-05T15:34:13.570Z,2.20
2023-03-05T15:37:00.164Z,2.20
2023-03-05T15:39:46.692Z,2.20
2023-03-05T15:42:33.173Z,2.10
2023-03-05T15:45:19.689Z,2.10
2023-03-05T15:48:06.175Z,2.10
2023-03-05T15:50:52.733Z,2.10
2023-03-05T15:53:39.232Z,2.10
2023-03-05T15:56:25.778Z,2.10
2023-03-05T15:59:12.299Z,2.10
2023-03-05T16:01:58.950Z,2.20
2023-03-05T16:04:45.460Z,2.20
2023-03-05T16:07:33.004Z,2.20
2023-03-05T16:10:19.603Z,2.20
2023-03-05T16:13:06.140Z,2.20
2023-03-05T16:15:52.677Z,2.20
2023-03-05T16:18:39.279Z,2.20
2023-03-05T16:21:25.818Z,2.20
2023-03-05T16:24:12.409Z,2.20
2023-03-05T16:26:59.043Z,2.20
2023-03-05T16:29:45.568Z,2.10
2023-03-05T16:32:33.091Z,2.10
2023-03-05T16:35:19.830Z,2.10
2023-03-05T16:38:09.051Z,2.10
2023-03-05T16:41:07.820Z,2.10
2023-03-05T16:43:54.971Z,2.10
2023-03-05T16:46:41.654Z,2.10
2023-03-05T16:49:28.171Z,2.10
2023-03-05T16:52:19.185Z,2.10
2023-03-05T16:55:06.534Z,2.00
2023-03-05T16:57:53.150Z,2.00
2023-03-05T17:00:39.664Z,2.00
2023-03-05T17:03:26.223Z,1.90
2023-03-05T17:06:12.700Z,1.90
2023-03-05T17:08:59.236Z,1.80
2023-03-05T17:11:45.766Z,1.90
2023-03-05T17:14:32.405Z,1.80
2023-03-05T17:17:18.991Z,1.80
2023-03-05T17:20:05.649Z,1.80
2023-03-05T17:22:52.191Z,1.80
2023-03-05T17:25:38.703Z,1.80
2023-03-05T17:28:25.232Z,1.90
2023-03-05T17:31:11.738Z,1.90
2023-03-05T17:33:58.235Z,1.90
2023-03-05T17:36:44.788Z,1.90
2023-03-05T17:39:31.288Z,1.90
2023-03-05T17:42:18.788Z,1.90
2023-03-05T17:45:05.262Z,1.90
2023-03-05T17:47:51.796Z,2.00
2023-03-05T17:50:38.330Z,2.00
2023-03-05T17:53:24.811Z,1.90
2023-03-05T17:56:11.320Z,1.90
2023-03-05T17:58:57.816Z,1.80
2023-03-05T18:01:44.321Z,1.80
2023-03-05T18:04:30.835Z,1.80
2023-03-05T18:07:17.387Z,1.80
2023-03-05T18:10:03.870Z,1.70
2023-03-05T18:12:50.367Z,1.60
2023-03-05T18:15:36.857Z,1.70
2023-03-05T18:18:23.358Z,1.70
2023-03-05T18:21:09.879Z,1.60
2023-03-05T18:23:56.437Z,1.50
2023-03-05T18:26:42.909Z,1.50
2023-03-05T18:29:29.427Z,1.40
2023-03-05T18:32:15.955Z,1.40
2023-03-05T18:35:02.556Z,1.40
2023-03-05T18:37:50.132Z,1.40
2023-03-05T18:40:36.689Z,1.40
2023-03-05T18:43:23.194Z,1.40
2023-03-05T18:46:09.823Z,1.40
2023-03-05T18:48:56.365Z,1.40
2023-03-05T18:51:42.878Z,1.30
2023-03-05T18:54:29.378Z,1.30
2023-03-05T18:57:15.943Z,1.30
2023-03-05T19:00:02.526Z,1.30
2023-03-05T19:02:49.070Z,1.30
2023-03-05T19:05:35.667Z,1.30
2023-03-05T19:08:22.107Z,1.30
2023-03-05T19:11:08.720Z,1.20
2023-03-05T19:13:55.510Z,1.30
2023-03-05T19:16:42.050Z,1.30
2023-03-05T19:19:28.630Z,1.30
2023-03-05T19:22:15.171Z,1.20
2023-03-05T19:25:01.664Z,1.20
2023-03-05T19:27:48.234Z,1.20
2023-03-05T19:30:35.723Z,1.10
2023-03-05T19:33:24.134Z,1.10
2023-03-05T19:36:11.547Z,1.10
2023-03-05T19:38:58.054Z,1.10
2023-03-05T19:41:44.595Z,1.00
2023-03-05T19:44:31.075Z,1.00
2023-03-05T19:47:17.737Z,1.10
2023-03-05T19:50:04.224Z,1.10
2023-03-05T19:52:50.759Z,1.10
2023-03-05T19:55:37.284Z,1.10
2023-03-05T19:58:23.806Z,1.10
2023-03-05T20:01:11.317Z,1.10
2023-03-05T20:03:57.815Z,1.00
2023-03-05T20:06:44.502Z,1.10
2023-03-05T20:09:31.018Z,1.00
2023-03-05T20:12:17.616Z,0.90
2023-03-05T20:15:04.095Z,0.90
2023-03-05T20:17:50.624Z,0.90
2023-03-05T20:20:37.126Z,0.90
2023-03-05T20:23:23.642Z,1.10
2023-03-05T20:26:10.166Z,1.00
2023-03-05T20:28:56.657Z,1.10
2023-03-05T20:31:43.303Z,1.10
2023-03-05T20:34:29.826Z,1.10
2023-03-05T20:37:16.424Z,1.10
2023-03-05T20:40:03.135Z,1.10
2023-03-05T20:42:51.214Z,1.20
2023-03-05T20:45:37.727Z,1.10
2023-03-05T20:48:24.233Z,1.20
2023-03-05T20:51:10.704Z,1.20
2023-03-05T20:53:57.211Z,1.20
2023-03-05T20:56:43.767Z,1.20
2023-03-05T20:59:30.311Z,1.20
2023-03-05T21:02:16.818Z,1.20
2023-03-05T21:05:03.358Z,1.20
2023-03-05T21:07:49.942Z,1.10
2023-03-05T21:10:36.471Z,1.10
2023-03-05T21:13:23.013Z,1.20
2023-03-05T21:16:09.634Z,1.10
2023-03-05T21:18:56.184Z,1.10
2023-03-05T21:21:42.686Z,1.10
2023-03-05T21:24:29.182Z,1.00
2023-03-05T21:27:15.723Z,0.90
2023-03-05T21:30:02.314Z,0.90
2023-03-05T21:32:48.988Z,1.00
2023-03-05T21:35:35.540Z,1.00
2023-03-05T21:38:22.059Z,1.00
2023-03-05T21:41:08.602Z,0.90
2023-03-05T21:43:55.135Z,0.80
2023-03-05T21:46:41.691Z,0.70
2023-03-05T21:49:28.176Z,0.80
2023-03-05T21:52:14.689Z,0.80
2023-03-05T21:55:01.225Z,0.80
2023-03-05T21:57:47.728Z,0.80
2023-03-05T22:00:34.204Z,0.80
2023-03-05T22:03:20.700Z,0.90
2023-03-05T22:06:07.215Z,0.80
2023-03-05T22:08:53.747Z,0.90
2023-03-05T22:11:40.223Z,0.90
2023-03-05T22:14:26.727Z,0.90
2023-03-05T22:17:13.255Z,0.90
2023-03-05T22:19:59.751Z,0.90
2023-03-05T22:22:46.236Z,0.90
2023-03-05T22:25:32.735Z,1.00
2023-03-05T22:28:19.251Z,1.00
2023-03-05T22:31:05.763Z,1.00
2023-03-05T22:33:52.302Z,1.00
2023-03-05T22:36:38.823Z,1.00
2023-03-05T22:39:25.364Z,1.00
2023-03-05T22:42:11.987Z,0.90
2023-03-05T22:44:58.487Z,0.90
2023-03-05T22:47:45.022Z,0.90
2023-03-05T22:50:31.510Z,0.90
2023-03-05T22:53:18.008Z,0.90
2023-03-05T22:56:04.523Z,0.90
2023-03-05T22:58:51.084Z,0.90
2023-03-05T23:01:37.563Z,0.90
2023-03-05T23:04:24.147Z,0.90
2023-03-05T23:07:10.664Z,0.90
2023-03-05T23:09:57.228Z,1.00
2023-03-05T23:12:43.765Z,0.90
2023-03-05T23:15:34.832Z,0.90
2023-03-05T23:18:21.367Z,0.90
2023-03-05T23:21:07.868Z,0.90
2023-03-05T23:23:54.376Z,0.80
2023-03-05T23:26:40.884Z,0.90
2023-03-05T23:29:27.392Z,0.80
2023-03-05T23:32:13.913Z,0.90
2023-03-05T23:35:00.442Z,0.90
2023-03-05T23:37:46.925Z,0.90
2023-03-05T23:40:33.414Z,0.90
2023-03-05T23:43:19.939Z,0.90
2023-03-05T23:46:06.454Z,0.90
2023-03-05T23:48:52.942Z,0.90
2023-03-05T23:51:39.491Z,0.90
2023-03-05T23:54:25.981Z,0.90
2023-03-05T23:57:12.499Z,0.90
2023-03-05T23:59:58.983Z,0.90
